Time;durP1;ratioP1;P1;durP2;ratioP2;P2;SDS_P1;SDS_P2;PMS_P1;PMS_P2;Temp;Humidity;BMP_temperature;BMP_pressure;BME280_temperature;BME280_humidity;BME280_pressure;Samples;Min_cycle;Max_cycle;Signal;HPM_P1;HPM_P2
2024/03/18 00:00:19;;;;;;;5.93;5.07;;;13.30;99.90;;;;;;4998884;28;20855;-31
2024/03/18 00:02:49;;;;;;;6.23;5.43;;;13.20;99.90;;;;;;4981170;28;20444;-27
2024/03/18 00:05:18;;;;;;;9.93;6.27;;;13.20;99.90;;;;;;4998824;28;20417;-26
2024/03/18 00:07:45;;;;;;;9.10;5.20;;;13.20;99.90;;;;;;4999074;28;20459;-29
2024/03/18 00:10:12;;;;;;;6.40;5.53;;;13.20;99.90;;;;;;4965138;28;20429;-29
2024/03/18 00:12:39;;;;;;;5.97;5.37;;;13.20;99.90;;;;;;4983502;28;20443;-32
2024/03/18 00:15:10;;;;;;;6.13;5.53;;;13.20;99.90;;;;;;4984408;28;21348;-34
2024/03/18 00:17:36;;;;;;;6.00;5.37;;;13.20;99.90;;;;;;4968435;28;20456;-29
2024/03/18 00:20:13;;;;;;;10.10;6.33;;;13.20;99.90;;;;;;4984375;28;20519;-32
2024/03/18 00:22:41;;;;;;;6.43;5.20;;;13.20;99.90;;;;;;5002023;28;20463;-29
2024/03/18 00:25:08;;;;;;;6.60;5.33;;;13.20;99.90;;;;;;5001958;28;20429;-30
2024/03/18 00:27:36;;;;;;;6.50;5.30;;;13.20;99.90;;;;;;4984537;28;20539;-28
2024/03/18 00:30:11;;;;;;;7.40;5.53;;;13.20;99.90;;;;;;5001425;28;20910;-28
2024/03/18 00:32:43;;;;;;;6.57;5.60;;;13.20;99.90;;;;;;4984194;28;20516;-29
2024/03/18 00:35:13;;;;;;;6.90;5.97;;;13.20;99.90;;;;;;5002508;28;20428;-29
2024/03/18 00:37:40;;;;;;;6.40;5.50;;;13.20;99.90;;;;;;5002991;28;20492;-28
2024/03/18 00:40:08;;;;;;;7.30;5.50;;;13.20;99.90;;;;;;4985196;28;20440;-28
2024/03/18 00:42:34;;;;;;;6.37;5.40;;;13.20;99.90;;;;;;4970354;28;20423;-29
2024/03/18 00:45:01;;;;;;;5.70;4.97;;;13.20;99.90;;;;;;4970477;28;20436;-27
2024/03/18 00:47:27;;;;;;;6.60;5.77;;;13.20;99.90;;;;;;4971047;28;20456;-28
2024/03/18 00:49:54;;;;;;;8.53;5.70;;;13.20;99.90;;;;;;4986971;28;20431;-27
2024/03/18 00:52:20;;;;;;;6.63;5.73;;;13.20;99.90;;;;;;4988588;28;20817;-26
2024/03/18 00:54:49;;;;;;;6.37;5.67;;;13.10;99.90;;;;;;5006050;28;20465;-32
2024/03/18 00:57:15;;;;;;;6.13;5.53;;;13.10;99.90;;;;;;4989258;28;20906;-28
2024/03/18 00:59:48;;;;;;;6.20;4.97;;;13.10;99.90;;;;;;5002234;28;20451;-31
2024/03/18 01:02:14;;;;;;;6.07;4.80;;;13.10;99.90;;;;;;5002284;28;20515;-32
2024/03/18 01:04:40;;;;;;;7.27;5.60;;;13.10;99.90;;;;;;4983909;28;20528;-31
2024/03/18 01:07:06;;;;;;;6.20;5.60;;;13.10;99.90;;;;;;5002839;28;20440;-30
2024/03/18 01:09:33;;;;;;;6.90;5.23;;;13.10;99.90;;;;;;5001706;28;20433;-33
2024/03/18 01:11:59;;;;;;;5.50;4.40;;;13.10;99.90;;;;;;5001217;28;20453;-26
2024/03/18 01:14:25;;;;;;;5.73;5.17;;;13.10;99.90;;;;;;4983833;28;20487;-29
2024/03/18 01:16:51;;;;;;;8.00;6.07;;;13.10;99.90;;;;;;5001144;28;20440;-28
2024/03/18 01:19:17;;;;;;;6.83;5.60;;;13.10;99.90;;;;;;5000955;28;20515;-28
2024/03/18 01:21:43;;;;;;;6.83;5.30;;;13.10;99.90;;;;;;4983086;28;20436;-28
2024/03/18 01:24:11;;;;;;;6.93;5.80;;;13.10;99.90;;;;;;4966501;28;20433;-29
2024/03/18 01:26:37;;;;;;;5.90;5.30;;;13.10;99.90;;;;;;5001554;28;20753;-27
2024/03/18 01:29:03;;;;;;;6.63;5.53;;;13.10;99.90;;;;;;5001337;28;21003;-28
2024/03/18 01:31:29;;;;;;;7.17;5.80;;;13.10;99.90;;;;;;5000631;28;20475;-35
2024/03/18 01:33:55;;;;;;;6.40;5.63;;;13.10;99.90;;;;;;5001006;28;20479;-33
2024/03/18 01:36:22;;;;;;;6.27;5.20;;;13.10;99.90;;;;;;4982115;28;20457;-32
2024/03/18 01:38:48;;;;;;;6.93;5.10;;;13.10;99.90;;;;;;5001402;28;20424;-29
2024/03/18 01:41:14;;;;;;;6.57;5.10;;;13.10;99.90;;;;;;5000199;28;20423;-31
2024/03/18 01:43:40;;;;;;;7.00;5.20;;;13.10;99.90;;;;;;4982890;28;20850;-29
2024/03/18 01:46:17;;;;;;;5.33;4.83;;;13.10;99.90;;;;;;4966699;28;21065;-29
2024/03/18 01:48:45;;;;;;;7.20;4.73;;;13.10;99.90;;;;;;5000279;28;20429;-27
2024/03/18 01:51:14;;;;;;;7.27;5.57;;;13.10;99.90;;;;;;4982361;28;21245;-28
2024/03/18 01:53:41;;;;;;;7.17;5.80;;;13.10;99.90;;;;;;4999871;28;20525;-33
2024/03/18 01:56:12;;;;;;;8.10;5.73;;;13.10;99.90;;;;;;5000278;28;20981;-28
2024/03/18 01:58:38;;;;;;;6.10;5.43;;;13.10;99.90;;;;;;4983142;28;20995;-28
2024/03/18 02:01:06;;;;;;;7.50;6.20;;;13.10;99.90;;;;;;4999903;28;20433;-28
2024/03/18 02:03:32;;;;;;;8.33;5.70;;;13.00;99.90;;;;;;4999910;28;20471;-31
2024/03/18 02:05:58;;;;;;;6.93;5.40;;;13.00;99.90;;;;;;4965603;28;20433;-28
2024/03/18 02:08:24;;;;;;;7.30;5.57;;;13.00;99.90;;;;;;4982037;28;20439;-32
2024/03/18 02:10:50;;;;;;;5.70;5.07;;;13.00;99.90;;;;;;4975566;28;20453;-33
2024/03/18 02:13:16;;;;;;;7.47;5.20;;;13.00;99.90;;;;;;4982199;28;20464;-34
2024/03/18 02:15:44;;;;;;;5.97;5.00;;;13.00;99.90;;;;;;4982399;28;20425;-33
2024/03/18 02:18:10;;;;;;;5.40;4.90;;;13.00;99.90;;;;;;5000746;28;20453;-28
2024/03/18 02:20:36;;;;;;;7.27;5.07;;;13.00;99.90;;;;;;4966609;28;20455;-29
2024/03/18 02:23:04;;;;;;;6.43;5.03;;;13.00;99.90;;;;;;4997066;28;20449;-31
2024/03/18 02:25:32;;;;;;;7.30;5.27;;;13.00;99.90;;;;;;5000998;28;20421;-26
2024/03/18 02:27:59;;;;;;;6.07;5.00;;;13.00;99.90;;;;;;5000684;28;20480;-28
2024/03/18 02:30:25;;;;;;;6.60;4.63;;;13.00;99.90;;;;;;4999831;28;20494;-30
2024/03/18 02:32:50;;;;;;;5.17;4.50;;;13.00;99.90;;;;;;4981925;28;20888;-28
2024/03/18 02:35:16;;;;;;;5.03;4.30;;;13.00;99.90;;;;;;4999178;28;20466;-30
2024/03/18 02:37:43;;;;;;;6.40;5.20;;;13.00;99.90;;;;;;4999299;28;20469;-29
2024/03/18 02:40:10;;;;;;;5.70;5.10;;;13.00;99.90;;;;;;4981233;28;20437;-29
2024/03/18 02:42:37;;;;;;;6.90;5.40;;;13.00;99.90;;;;;;4998992;28;20425;-32
2024/03/18 02:45:09;;;;;;;5.33;4.57;;;13.00;99.90;;;;;;4995692;28;20440;-32
2024/03/18 02:47:38;;;;;;;6.43;4.50;;;13.00;99.90;;;;;;4965268;28;21074;-27
2024/03/18 02:50:09;;;;;;;5.60;5.10;;;13.00;99.90;;;;;;4978941;28;20448;-28
2024/03/18 02:52:39;;;;;;;5.70;4.57;;;13.00;99.90;;;;;;4999434;28;20457;-29
2024/03/18 02:55:06;;;;;;;6.33;5.33;;;13.00;99.90;;;;;;4992091;28;20490;-27
2024/03/18 02:57:32;;;;;;;6.33;5.10;;;13.00;99.90;;;;;;4999486;28;20483;-29
2024/03/18 02:59:59;;;;;;;7.20;5.13;;;13.00;99.90;;;;;;4999064;28;20424;-30
2024/03/18 03:02:26;;;;;;;5.43;4.50;;;13.00;99.90;;;;;;4998728;28;20471;-32
2024/03/18 03:04:54;;;;;;;5.80;4.67;;;13.00;99.90;;;;;;4981157;28;20446;-34
2024/03/18 03:07:22;;;;;;;4.93;4.20;;;13.00;99.90;;;;;;4999121;28;20819;-26
2024/03/18 03:09:51;;;;;;;5.77;5.27;;;13.00;99.90;;;;;;4998961;28;20997;-30
2024/03/18 03:12:17;;;;;;;5.47;4.37;;;13.00;99.90;;;;;;4981443;28;20431;-27
2024/03/18 03:14:43;;;;;;;9.23;4.80;;;13.00;99.90;;;;;;4981629;28;21330;-28
2024/03/18 03:17:10;;;;;;;4.57;4.00;;;13.00;99.90;;;;;;4981547;28;20449;-26
2024/03/18 03:19:36;;;;;;;4.13;3.73;;;13.00;99.90;;;;;;4981444;28;20429;-28
2024/03/18 03:22:03;;;;;;;5.07;4.57;;;13.00;99.90;;;;;;5002902;28;20440;-30
2024/03/18 03:24:30;;;;;;;5.07;4.40;;;12.90;99.90;;;;;;4995700;28;20424;-26
2024/03/18 03:26:56;;;;;;;4.93;4.43;;;13.00;99.90;;;;;;4981579;28;20975;-29
2024/03/18 03:29:22;;;;;;;5.40;4.90;;;13.00;99.90;;;;;;4981036;28;20445;-31
2024/03/18 03:31:48;;;;;;;5.07;4.50;;;13.00;99.90;;;;;;4999003;28;21336;-29
2024/03/18 03:34:15;;;;;;;6.80;5.07;;;13.00;99.90;;;;;;4964940;28;20484;-34
2024/03/18 03:36:44;;;;;;;5.33;4.40;;;13.00;99.90;;;;;;4998726;28;20998;-32
2024/03/18 03:39:11;;;;;;;5.87;5.23;;;13.00;99.90;;;;;;4965438;28;20429;-28
2024/03/18 03:41:37;;;;;;;5.87;4.90;;;13.00;99.90;;;;;;4998655;28;20547;-27
2024/03/18 03:44:04;;;;;;;6.03;5.03;;;13.00;99.90;;;;;;4996068;28;20532;-30
2024/03/18 03:46:30;;;;;;;5.80;5.20;;;13.00;99.90;;;;;;5001005;28;20510;-27
2024/03/18 03:48:57;;;;;;;6.27;5.20;;;13.00;99.90;;;;;;4985544;28;20906;-31
2024/03/18 03:51:23;;;;;;;5.70;5.13;;;13.00;99.90;;;;;;4985129;28;20434;-31
2024/03/18 03:53:50;;;;;;;5.70;4.80;;;12.90;99.90;;;;;;4984999;28;20468;-26
2024/03/18 03:56:16;;;;;;;5.13;4.63;;;13.00;99.90;;;;;;4984242;28;21107;-29
2024/03/18 03:58:46;;;;;;;4.80;4.30;;;12.90;99.90;;;;;;4985133;28;20444;-27
2024/03/18 04:01:12;;;;;;;5.10;4.60;;;12.90;99.90;;;;;;4984672;28;20427;-30
2024/03/18 04:03:38;;;;;;;6.00;5.13;;;12.90;99.90;;;;;;4984543;28;20444;-31
2024/03/18 04:06:05;;;;;;;6.83;5.20;;;12.90;99.90;;;;;;5002226;28;20975;-31
2024/03/18 04:08:30;;;;;;;5.30;4.80;;;12.90;99.90;;;;;;5002429;28;20429;-30
2024/03/18 04:10:57;;;;;;;5.73;4.90;;;12.90;99.90;;;;;;5002131;28;20556;-29
2024/03/18 04:13:24;;;;;;;6.57;5.90;;;12.90;99.90;;;;;;4984503;28;20472;-32
2024/03/18 04:15:49;;;;;;;7.30;5.37;;;12.90;99.90;;;;;;5002356;28;20443;-30
2024/03/18 04:18:16;;;;;;;8.17;5.20;;;12.90;99.90;;;;;;4985116;28;20452;-33
2024/03/18 04:20:43;;;;;;;6.37;5.67;;;12.90;99.90;;;;;;5002316;28;20440;-30
2024/03/18 04:23:11;;;;;;;5.23;4.37;;;12.90;99.90;;;;;;5002632;28;21033;-30
2024/03/18 04:25:38;;;;;;;5.30;4.80;;;12.90;99.90;;;;;;5002275;28;20463;-31
2024/03/18 04:28:07;;;;;;;5.23;4.73;;;12.90;99.90;;;;;;4999249;28;20506;-27
2024/03/18 04:30:34;;;;;;;6.47;4.63;;;12.90;99.90;;;;;;5002269;28;20437;-31
2024/03/18 04:33:07;;;;;;;7.20;4.57;;;12.90;99.90;;;;;;5001702;28;20445;-29
2024/03/18 04:35:33;;;;;;;6.00;5.03;;;12.90;99.90;;;;;;4978937;28;20448;-29
2024/03/18 04:37:59;;;;;;;6.50;5.00;;;12.90;99.90;;;;;;5001746;28;20468;-27
2024/03/18 04:40:26;;;;;;;7.53;5.50;;;12.90;99.90;;;;;;4984004;28;20444;-30
2024/03/18 04:42:54;;;;;;;5.53;4.83;;;12.90;99.90;;;;;;5001693;28;20436;-28
2024/03/18 04:45:23;;;;;;;6.30;4.90;;;12.90;99.90;;;;;;4984311;28;20964;-31
2024/03/18 04:47:51;;;;;;;5.20;4.03;;;12.90;99.90;;;;;;5001748;28;20447;-27
2024/03/18 04:50:22;;;;;;;5.60;4.80;;;12.90;99.90;;;;;;5002215;28;20936;-26
2024/03/18 04:53:13;;;;;;;5.10;4.37;;;12.90;99.90;;;;;;4984408;28;20437;-26
2024/03/18 04:55:42;;;;;;;5.30;4.80;;;12.90;99.90;;;;;;5002121;28;20469;-27
2024/03/18 04:58:10;;;;;;;5.30;4.73;;;12.90;99.90;;;;;;4997450;28;20464;-29
2024/03/18 05:00:36;;;;;;;5.60;4.90;;;12.90;99.90;;;;;;5001514;28;20802;-31
2024/03/18 05:03:02;;;;;;;7.43;5.00;;;12.90;99.90;;;;;;4983615;28;20443;-30
2024/03/18 05:05:29;;;;;;;6.30;4.97;;;12.90;99.90;;;;;;4983906;28;20563;-28
2024/03/18 05:07:54;;;;;;;5.27;4.70;;;12.90;99.90;;;;;;5001825;28;20488;-30
2024/03/18 05:10:26;;;;;;;5.40;4.57;;;12.90;99.90;;;;;;4984317;28;20436;-28
2024/03/18 05:12:53;;;;;;;4.97;4.10;;;12.90;99.90;;;;;;5001870;28;20490;-33
2024/03/18 05:15:19;;;;;;;5.07;3.73;;;12.90;99.90;;;;;;4984088;28;20908;-29
2024/03/18 05:17:46;;;;;;;5.50;4.90;;;12.90;99.90;;;;;;4983843;28;20455;-33
2024/03/18 05:20:12;;;;;;;4.60;4.20;;;12.90;99.90;;;;;;5002072;28;20899;-27
2024/03/18 05:22:38;;;;;;;5.83;5.03;;;12.90;99.90;;;;;;4983692;28;20417;-29
2024/03/18 05:25:07;;;;;;;4.90;4.40;;;12.90;99.90;;;;;;4984166;28;20790;-27
2024/03/18 05:27:34;;;;;;;4.43;3.97;;;12.90;99.90;;;;;;4983590;28;20681;-31
2024/03/18 05:30:00;;;;;;;5.10;4.60;;;12.90;99.90;;;;;;5001557;28;21624;-33
2024/03/18 05:32:28;;;;;;;4.30;3.90;;;12.80;99.90;;;;;;5000944;28;20510;-31
2024/03/18 05:34:56;;;;;;;4.67;3.80;;;12.90;99.90;;;;;;4983323;28;20472;-32
2024/03/18 05:37:28;;;;;;;5.37;4.20;;;12.80;99.90;;;;;;4999839;28;20456;-29
2024/03/18 05:39:54;;;;;;;5.20;4.30;;;12.90;99.90;;;;;;5001405;28;20755;-29
2024/03/18 05:42:20;;;;;;;5.47;4.43;;;12.80;99.90;;;;;;5001034;28;20435;-27
2024/03/18 05:44:46;;;;;;;5.10;4.17;;;12.80;99.90;;;;;;4983608;28;20566;-26
2024/03/18 05:47:13;;;;;;;5.23;4.63;;;12.80;99.90;;;;;;5001312;28;20671;-31
2024/03/18 05:49:39;;;;;;;5.73;4.80;;;12.80;99.90;;;;;;4983244;28;20449;-27
2024/03/18 05:52:05;;;;;;;4.63;4.20;;;12.80;99.90;;;;;;5000754;28;20528;-29
2024/03/18 05:54:31;;;;;;;5.00;4.23;;;12.80;99.90;;;;;;5003626;28;20517;-27
2024/03/18 05:56:57;;;;;;;6.20;4.37;;;12.80;99.90;;;;;;4969514;28;21291;-29
2024/03/18 05:59:23;;;;;;;4.40;3.93;;;12.80;99.90;;;;;;4999292;28;20506;-26
2024/03/18 06:01:49;;;;;;;5.13;4.67;;;12.80;99.90;;;;;;4999249;28;20416;-26
2024/03/18 06:04:18;;;;;;;6.00;4.50;;;12.80;99.90;;;;;;4981747;28;20532;-28
2024/03/18 06:06:44;;;;;;;5.00;4.20;;;12.80;99.90;;;;;;4980920;28;20522;-29
2024/03/18 06:09:10;;;;;;;7.03;4.63;;;12.80;99.90;;;;;;4999055;28;20507;-28
2024/03/18 06:11:39;;;;;;;5.30;4.07;;;12.80;99.90;;;;;;4980955;28;20925;-26
2024/03/18 06:14:11;;;;;;;6.50;5.03;;;12.80;99.90;;;;;;4980768;28;20487;-27
2024/03/18 06:16:37;;;;;;;4.53;3.87;;;12.80;99.90;;;;;;4999346;28;20452;-27
2024/03/18 06:19:08;;;;;;;6.47;4.80;;;12.80;99.90;;;;;;4965084;28;20587;-28
2024/03/18 06:21:42;;;;;;;5.97;4.60;;;12.80;99.90;;;;;;4995633;28;20475;-28
2024/03/18 06:24:20;;;;;;;5.63;4.10;;;12.80;99.90;;;;;;4981007;28;20420;-28
2024/03/18 06:26:46;;;;;;;6.23;5.37;;;12.80;99.90;;;;;;4999077;28;20849;-28
2024/03/18 06:29:12;;;;;;;5.03;4.40;;;12.80;99.90;;;;;;4998908;28;20962;-27
2024/03/18 06:31:45;;;;;;;6.60;4.67;;;12.80;99.90;;;;;;4999288;28;20497;-26
2024/03/18 06:34:11;;;;;;;4.70;3.83;;;12.80;99.90;;;;;;4981063;28;20494;-27
2024/03/18 06:36:40;;;;;;;5.93;4.00;;;12.80;99.90;;;;;;4999013;28;20551;-26
2024/03/18 06:39:08;;;;;;;5.40;4.70;;;12.80;99.90;;;;;;4998550;28;20435;-31
2024/03/18 06:41:35;;;;;;;5.47;4.47;;;12.80;99.90;;;;;;4998445;28;20522;-26
2024/03/18 06:44:03;;;;;;;4.67;3.90;;;12.80;99.90;;;;;;4998214;28;20457;-26
2024/03/18 06:46:29;;;;;;;6.10;4.37;;;12.80;99.90;;;;;;4998355;28;20488;-26
2024/03/18 06:48:55;;;;;;;5.60;4.63;;;12.80;99.90;;;;;;4983238;28;20741;-26
2024/03/18 06:51:21;;;;;;;5.03;4.30;;;12.80;99.90;;;;;;4984046;28;20436;-26
2024/03/18 06:53:48;;;;;;;5.13;4.30;;;12.80;99.90;;;;;;4999214;28;21019;-27
2024/03/18 06:56:17;;;;;;;6.10;4.80;;;12.80;99.90;;;;;;4997975;28;20431;-29
2024/03/18 06:58:43;;;;;;;5.20;4.70;;;12.80;99.90;;;;;;4998518;28;20456;-26
2024/03/18 07:01:12;;;;;;;5.20;4.70;;;12.80;99.90;;;;;;4980732;28;20551;-26
2024/03/18 07:03:38;;;;;;;5.83;4.50;;;12.80;99.90;;;;;;4998308;28;20898;-28
2024/03/18 07:06:07;;;;;;;5.10;4.10;;;12.80;99.90;;;;;;4980766;28;20444;-28
2024/03/18 07:08:33;;;;;;;5.53;4.50;;;12.80;99.90;;;;;;4975975;28;20432;-29
2024/03/18 07:10:59;;;;;;;6.83;4.93;;;12.80;99.90;;;;;;4980972;28;20466;-27
2024/03/18 07:13:25;;;;;;;5.80;4.83;;;12.80;99.90;;;;;;4980915;28;20475;-26
2024/03/18 07:15:51;;;;;;;6.67;4.30;;;12.80;99.90;;;;;;4982820;28;20524;-34
2024/03/18 07:18:18;;;;;;;6.10;4.47;;;12.80;99.90;;;;;;4982619;28;20463;-27
2024/03/18 07:20:49;;;;;;;4.87;4.40;;;12.80;99.90;;;;;;5002124;28;20448;-25
2024/03/18 07:23:17;;;;;;;6.23;4.20;;;12.80;99.90;;;;;;5001403;28;20452;-29
2024/03/18 07:25:43;;;;;;;5.00;4.50;;;12.80;99.90;;;;;;5001177;28;21000;-26
2024/03/18 07:28:10;;;;;;;5.63;4.77;;;12.80;99.90;;;;;;4998632;28;20444;-28
2024/03/18 07:30:36;;;;;;;4.63;4.23;;;12.80;99.90;;;;;;4998285;28;20428;-26
2024/03/18 07:33:04;;;;;;;6.20;4.73;;;12.80;99.90;;;;;;4955699;28;20556;-27
2024/03/18 07:35:30;;;;;;;5.47;4.37;;;12.80;99.90;;;;;;4997496;28;20436;-27
2024/03/18 07:38:01;;;;;;;5.50;4.63;;;12.80;99.90;;;;;;4979225;28;20518;-27
2024/03/18 07:40:29;;;;;;;4.73;4.00;;;12.80;99.90;;;;;;4964714;28;20487;-27
2024/03/18 07:42:55;;;;;;;6.50;5.40;;;12.80;99.90;;;;;;4997688;28;20504;-26
2024/03/18 07:45:21;;;;;;;5.00;4.43;;;12.80;99.90;;;;;;4980292;28;20516;-26
2024/03/18 07:47:52;;;;;;;4.43;4.03;;;12.80;99.90;;;;;;4980757;28;20980;-26
2024/03/18 07:50:20;;;;;;;5.63;4.80;;;12.80;99.90;;;;;;4986032;28;20475;-30
2024/03/18 07:52:46;;;;;;;6.60;4.20;;;12.80;99.90;;;;;;4999264;28;20440;-30
2024/03/18 07:55:12;;;;;;;5.80;4.67;;;12.80;99.90;;;;;;4999630;28;20820;-26
2024/03/18 07:57:38;;;;;;;5.37;4.50;;;12.80;99.90;;;;;;4982152;28;20982;-28
2024/03/18 08:00:08;;;;;;;6.47;4.60;;;12.80;99.90;;;;;;4982616;28;20587;-26
2024/03/18 08:02:38;;;;;;;5.60;4.67;;;12.80;99.90;;;;;;4982379;28;20413;-26
2024/03/18 08:05:04;;;;;;;5.77;4.53;;;12.80;99.90;;;;;;4999322;28;20428;-27
2024/03/18 08:07:34;;;;;;;4.87;4.27;;;12.80;99.90;;;;;;4999709;28;20471;-29
2024/03/18 08:10:02;;;;;;;4.47;4.07;;;12.80;99.90;;;;;;4998785;28;20424;-32
2024/03/18 08:12:28;;;;;;;4.57;4.13;;;12.80;99.90;;;;;;4980911;28;20439;-25
2024/03/18 08:14:54;;;;;;;6.13;4.10;;;12.80;99.90;;;;;;4964100;28;20472;-26
2024/03/18 08:17:23;;;;;;;4.70;3.77;;;12.80;99.90;;;;;;4981224;28;20941;-28
2024/03/18 08:19:49;;;;;;;6.27;4.83;;;12.80;99.90;;;;;;4948527;28;20436;-27
2024/03/18 08:22:18;;;;;;;5.60;4.83;;;12.80;99.90;;;;;;4980740;28;20452;-26
2024/03/18 08:24:48;;;;;;;5.07;4.57;;;12.80;99.90;;;;;;4998341;28;20863;-28
2024/03/18 08:27:14;;;;;;;4.90;4.40;;;12.80;99.90;;;;;;4998564;28;20444;-26
2024/03/18 08:29:45;;;;;;;8.90;4.73;;;12.80;99.90;;;;;;4998031;28;20417;-26
2024/03/18 08:32:11;;;;;;;6.67;4.93;;;12.80;99.90;;;;;;4980887;28;21153;-27
2024/03/18 08:34:43;;;;;;;4.93;4.43;;;12.80;99.90;;;;;;5002140;28;20571;-26
2024/03/18 08:37:10;;;;;;;4.97;4.30;;;12.80;99.90;;;;;;5003504;28;20456;-30
2024/03/18 08:39:36;;;;;;;6.13;5.13;;;12.90;99.90;;;;;;5003849;28;20448;-25
2024/03/18 08:42:09;;;;;;;6.00;4.63;;;12.90;99.90;;;;;;5003208;28;20421;-29
2024/03/18 08:44:38;;;;;;;5.10;4.43;;;12.90;99.90;;;;;;5002745;28;20495;-26
2024/03/18 08:47:05;;;;;;;6.50;4.70;;;12.90;99.90;;;;;;4985055;28;20454;-29
2024/03/18 08:49:31;;;;;;;5.40;4.70;;;12.90;99.90;;;;;;5007335;28;20421;-28
2024/03/18 08:51:57;;;;;;;7.90;5.87;;;12.90;99.90;;;;;;5009271;28;20522;-25
2024/03/18 08:54:30;;;;;;;5.67;4.90;;;12.90;99.90;;;;;;5010866;28;20468;-27
2024/03/18 08:56:56;;;;;;;6.30;5.70;;;12.90;99.90;;;;;;5002377;28;20444;-27
2024/03/18 08:59:23;;;;;;;5.30;4.80;;;12.90;99.90;;;;;;4986700;28;20421;-22
2024/03/18 09:01:48;;;;;;;8.17;6.10;;;12.90;99.90;;;;;;4988694;28;20439;-27
2024/03/18 09:04:18;;;;;;;5.73;5.13;;;12.90;99.90;;;;;;4971737;28;20485;-24
2024/03/18 09:06:46;;;;;;;6.20;5.20;;;13.00;99.90;;;;;;5001778;28;20983;-26
2024/03/18 09:09:16;;;;;;;6.57;5.43;;;13.00;99.90;;;;;;5007805;28;20460;-25
2024/03/18 09:11:43;;;;;;;8.33;6.30;;;13.00;99.90;;;;;;5005820;28;20471;-27
2024/03/18 09:14:11;;;;;;;6.10;5.13;;;13.00;99.90;;;;;;4982616;28;20472;-29
2024/03/18 09:16:37;;;;;;;6.03;5.40;;;13.00;99.90;;;;;;5002050;28;20433;-29
2024/03/18 09:19:04;;;;;;;6.70;5.43;;;13.00;99.90;;;;;;4987171;28;20432;-28
2024/03/18 09:21:30;;;;;;;7.73;6.00;;;13.00;99.90;;;;;;4970979;28;20435;-27
2024/03/18 09:23:58;;;;;;;8.50;6.30;;;13.00;99.90;;;;;;5021562;28;20954;-27
2024/03/18 09:26:24;;;;;;;8.67;6.83;;;13.00;99.90;;;;;;5021667;28;20530;-30
2024/03/18 09:28:50;;;;;;;8.53;7.10;;;13.10;99.90;;;;;;5007438;28;20484;-31
2024/03/18 09:31:16;;;;;;;8.40;6.80;;;13.10;99.90;;;;;;5002343;28;21562;-30
2024/03/18 09:33:42;;;;;;;8.20;6.80;;;13.10;99.90;;;;;;5014800;28;20517;-29
2024/03/18 09:36:08;;;;;;;8.80;6.93;;;13.10;99.90;;;;;;5002427;28;20931;-28
2024/03/18 09:38:34;;;;;;;8.10;6.80;;;13.10;99.90;;;;;;5001866;28;20494;-27
2024/03/18 09:41:04;;;;;;;8.50;6.00;;;13.10;99.90;;;;;;4984276;28;20454;-27
2024/03/18 09:43:34;;;;;;;8.37;7.57;;;13.20;99.90;;;;;;5002955;28;20444;-28
2024/03/18 09:46:06;;;;;;;9.33;6.53;;;13.20;99.90;;;;;;5003569;28;20437;-27
2024/03/18 09:48:34;;;;;;;10.47;6.53;;;13.20;99.90;;;;;;5003515;28;20442;-28
2024/03/18 09:51:01;;;;;;;8.17;6.53;;;13.20;99.90;;;;;;4983496;28;20455;-27
2024/03/18 09:53:30;;;;;;;8.57;6.90;;;13.20;99.90;;;;;;4984643;28;21309;-29
2024/03/18 09:55:56;;;;;;;9.03;6.93;;;13.20;99.90;;;;;;5000805;28;20456;-29
2024/03/18 09:58:29;;;;;;;9.83;7.60;;;13.30;99.90;;;;;;5003201;28;20563;-27
2024/03/18 10:00:57;;;;;;;8.70;7.20;;;13.30;99.90;;;;;;5004278;28;20428;-30
2024/03/18 10:03:23;;;;;;;10.07;7.53;;;13.30;99.90;;;;;;4985674;28;20421;-30
2024/03/18 10:05:49;;;;;;;13.60;7.63;;;13.30;99.90;;;;;;4969931;28;20566;-27
2024/03/18 10:08:17;;;;;;;9.20;7.13;;;13.30;99.90;;;;;;5005115;28;20849;-28
2024/03/18 10:10:52;;;;;;;8.60;7.53;;;13.40;99.90;;;;;;4970373;28;20819;-28
2024/03/18 10:13:23;;;;;;;12.80;7.30;;;13.40;99.90;;;;;;5004686;28;20935;-31
2024/03/18 10:15:51;;;;;;;7.53;6.33;;;13.40;99.90;;;;;;5006220;28;20405;-31
2024/03/18 10:18:26;;;;;;;8.93;6.33;;;13.40;99.90;;;;;;4996363;28;20490;-23
2024/03/18 10:21:17;;;;;;;12.80;6.43;;;13.40;99.90;;;;;;4993190;28;20425;-29
2024/03/18 10:23:55;;;;;;;9.63;6.37;;;13.40;99.90;;;;;;4990917;28;21070;-24
2024/03/18 10:26:31;;;;;;;8.27;5.27;;;13.40;99.90;;;;;;4989328;28;20968;-28
2024/03/18 10:29:01;;;;;;;7.27;5.63;;;13.50;99.90;;;;;;5015812;28;20432;-27
2024/03/18 10:31:37;;;;;;;9.80;4.70;;;13.50;99.90;;;;;;5004177;28;20475;-27
2024/03/18 10:34:07;;;;;;;6.80;5.70;;;13.50;99.90;;;;;;4981715;28;21216;-27
2024/03/18 10:36:36;;;;;;;5.50;4.70;;;13.50;99.90;;;;;;4962162;28;20476;-28
2024/03/18 10:39:07;;;;;;;7.80;5.50;;;13.60;99.90;;;;;;4999421;28;20450;-30
2024/03/18 10:41:38;;;;;;;7.57;3.90;;;13.60;99.90;;;;;;4995109;28;20482;-26
2024/03/18 10:44:21;;;;;;;10.20;4.90;;;13.60;99.90;;;;;;4999093;28;20441;-25
2024/03/18 10:46:48;;;;;;;7.17;3.80;;;13.60;99.90;;;;;;4999344;28;21314;-26
2024/03/18 10:49:21;;;;;;;10.30;3.50;;;13.60;99.90;;;;;;4999430;28;20463;-26
2024/03/18 10:51:51;;;;;;;5.80;4.40;;;13.70;99.90;;;;;;4980482;28;20558;-26
2024/03/18 10:54:18;;;;;;;6.33;3.80;;;13.70;99.90;;;;;;4980642;28;20515;-26
2024/03/18 10:56:45;;;;;;;7.83;3.67;;;13.70;99.90;;;;;;4997676;28;20445;-26
2024/03/18 10:59:18;;;;;;;3.80;3.40;;;13.70;99.90;;;;;;4980919;28;21052;-27
2024/03/18 11:01:48;;;;;;;6.40;3.17;;;13.80;99.90;;;;;;4948413;28;20539;-28
2024/03/18 11:04:28;;;;;;;4.93;2.90;;;13.80;99.90;;;;;;4980182;28;20919;-25
2024/03/18 11:06:55;;;;;;;5.00;2.90;;;13.80;99.90;;;;;;4998416;28;21273;-26
2024/03/18 11:09:23;;;;;;;7.40;3.37;;;13.80;99.90;;;;;;4980261;28;20429;-27
2024/03/18 11:11:50;;;;;;;8.13;3.43;;;13.90;99.90;;;;;;4998820;28;21105;-26
2024/03/18 11:14:27;;;;;;;8.87;3.43;;;13.90;99.90;;;;;;4980511;28;20526;-26
2024/03/18 11:16:54;;;;;;;3.57;3.00;;;13.90;99.90;;;;;;4980811;28;20455;-25
2024/03/18 11:19:30;;;;;;;11.40;3.73;;;13.90;99.90;;;;;;4981194;28;20425;-26
2024/03/18 11:22:00;;;;;;;3.57;3.20;;;13.90;99.90;;;;;;4965848;28;20460;-30
2024/03/18 11:24:27;;;;;;;4.70;3.60;;;13.90;99.90;;;;;;5001484;28;20483;-26
2024/03/18 11:27:01;;;;;;;7.40;3.70;;;14.00;99.90;;;;;;5004456;28;20464;-30
2024/03/18 11:29:39;;;;;;;7.53;3.90;;;14.00;99.90;;;;;;5007415;28;20510;-23
2024/03/18 11:32:51;;;;;;;5.63;3.77;;;14.00;99.90;;;;;;5004467;28;20570;-24
2024/03/18 11:35:17;;;;;;;6.90;3.80;;;14.00;99.90;;;;;;4994517;28;20473;-24
2024/03/18 11:41:19;;;;;;;9.23;4.60;;;14.00;99.90;;;;;;5001740;28;20518;-27
2024/03/18 11:43:49;;;;;;;6.93;4.30;;;14.10;99.90;;;;;;5000908;28;20937;-29
2024/03/18 11:50:04;;;;;;;5.80;4.50;;;14.10;99.90;;;;;;4999105;28;20495;-27
2024/03/18 11:52:33;;;;;;;8.73;5.60;;;14.20;99.90;;;;;;4984704;28;20459;-23
2024/03/18 11:58:42;;;;;;;8.70;6.20;;;14.20;99.90;;;;;;5006244;28;20431;-25
2024/03/18 12:01:13;;;;;;;11.87;6.50;;;14.20;99.90;;;;;;4997258;28;20429;-31
2024/03/18 12:03:49;;;;;;;7.97;6.27;;;14.20;99.90;;;;;;4993457;28;20483;-26
2024/03/18 12:06:16;;;;;;;7.37;6.20;;;14.20;99.90;;;;;;4999491;28;20507;-28
2024/03/18 12:08:49;;;;;;;10.20;7.17;;;14.20;99.90;;;;;;4984769;28;20436;-29
2024/03/18 12:11:16;;;;;;;9.37;7.53;;;14.30;99.90;;;;;;5002082;28;20436;-28
